createdAt,value
2019-01-25T00:01:56.041Z,36.47
2019-01-25T00:04:25.902Z,36.77
2019-01-25T00:06:55.686Z,39.30
2019-01-25T00:09:25.506Z,34.67
2019-01-25T00:11:55.295Z,38.57
2019-01-25T00:14:25.140Z,38.60
2019-01-25T00:16:54.911Z,37.80
2019-01-25T00:19:24.919Z,34.70
2019-01-25T00:21:54.720Z,38.50
2019-01-25T00:24:24.643Z,37.47
2019-01-25T00:26:54.443Z,34.30
2019-01-25T00:29:24.273Z,31.33
2019-01-25T00:31:54.072Z,33.30
2019-01-25T00:34:23.862Z,32.53
2019-01-25T00:36:53.690Z,34.30
2019-01-25T00:39:23.489Z,40.07
2019-01-25T00:41:53.333Z,31.30
2019-01-25T00:44:23.131Z,32.30
2019-01-25T00:46:53.041Z,32.40
2019-01-25T00:49:23.043Z,36.77
2019-01-25T00:51:52.880Z,36.40
2019-01-25T00:54:22.689Z,33.20
2019-01-25T00:56:52.514Z,33.23
2019-01-25T00:59:22.318Z,32.17
2019-01-25T01:01:52.149Z,31.73
2019-01-25T01:04:21.943Z,29.93
2019-01-25T01:06:52.379Z,31.40
2019-01-25T01:09:22.186Z,30.07
2019-01-25T01:11:51.998Z,32.80
2019-01-25T01:14:21.885Z,34.27
2019-01-25T01:16:51.698Z,32.70
2019-01-25T01:19:21.815Z,30.00
2019-01-25T01:21:51.632Z,31.47
2019-01-25T01:24:21.470Z,31.13
2019-01-25T01:26:51.292Z,28.33
2019-01-25T01:29:21.181Z,31.77
2019-01-25T01:31:50.963Z,33.63
2019-01-25T01:34:20.914Z,28.97
2019-01-25T01:36:50.693Z,29.53
2019-01-25T01:39:20.526Z,25.87
2019-01-25T01:41:50.305Z,32.47
2019-01-25T01:44:20.196Z,27.83
2019-01-25T01:46:50.039Z,32.37
2019-01-25T01:49:19.842Z,30.37
2019-01-25T01:51:49.689Z,31.47
2019-01-25T01:54:19.498Z,29.40
2019-01-25T01:56:49.318Z,28.17
2019-01-25T01:59:19.159Z,29.13
2019-01-25T02:01:49.022Z,30.67
2019-01-25T02:04:18.796Z,29.70
2019-01-25T02:06:48.613Z,29.67
2019-01-25T02:09:18.463Z,33.10
2019-01-25T02:11:48.284Z,30.20
2019-01-25T02:14:18.137Z,28.40
2019-01-25T02:16:47.909Z,28.93
2019-01-25T02:19:17.731Z,30.13
2019-01-25T02:21:47.516Z,30.13
2019-01-25T02:24:17.331Z,27.50
2019-01-25T02:26:47.167Z,31.87
2019-01-25T02:29:17.047Z,32.57
2019-01-25T02:31:46.837Z,30.90
2019-01-25T02:34:16.678Z,30.43
2019-01-25T02:36:46.463Z,31.20
2019-01-25T02:39:16.256Z,27.73
2019-01-25T02:41:46.130Z,27.23
2019-01-25T02:44:15.901Z,34.70
2019-01-25T02:46:45.746Z,30.50
2019-01-25T02:49:15.587Z,33.20
2019-01-25T02:51:45.414Z,29.90
2019-01-25T02:54:15.244Z,30.43
2019-01-25T02:56:45.122Z,31.43
2019-01-25T02:59:14.914Z,30.27
2019-01-25T03:01:44.732Z,27.00
2019-01-25T03:04:14.586Z,30.67
2019-01-25T03:06:44.440Z,27.60
2019-01-25T03:09:14.272Z,28.20
2019-01-25T03:11:44.091Z,31.33
2019-01-25T03:14:13.898Z,30.90
2019-01-25T03:16:43.691Z,28.93
2019-01-25T03:19:13.507Z,31.50
2019-01-25T03:21:43.316Z,34.37
2019-01-25T03:24:13.185Z,31.70
2019-01-25T03:26:43.054Z,35.70
2019-01-25T03:29:12.910Z,33.83
2019-01-25T03:31:42.712Z,28.03
2019-01-25T03:34:12.544Z,29.33
2019-01-25T03:36:42.332Z,30.73
2019-01-25T03:39:12.206Z,31.73
2019-01-25T03:41:42.002Z,31.67
2019-01-25T03:44:11.790Z,31.07
2019-01-25T03:46:41.606Z,30.30
2019-01-25T03:49:12.345Z,28.93
2019-01-25T03:51:42.326Z,34.40
2019-01-25T03:54:12.134Z,30.47
2019-01-25T03:56:41.950Z,28.33
2019-01-25T03:59:11.749Z,28.03
2019-01-25T04:01:41.627Z,33.50
2019-01-25T04:04:11.444Z,33.60
2019-01-25T04:06:41.273Z,34.63
2019-01-25T04:09:11.328Z,29.43
2019-01-25T04:11:41.159Z,33.70
2019-01-25T04:14:10.949Z,30.17
2019-01-25T04:16:40.833Z,29.67
2019-01-25T04:19:10.640Z,38.43
2019-01-25T04:21:40.420Z,34.60
2019-01-25T04:24:10.284Z,32.27
2019-01-25T04:26:40.126Z,32.63
2019-01-25T04:29:09.972Z,31.43
2019-01-25T04:31:39.771Z,33.27
2019-01-25T04:34:09.591Z,27.40
2019-01-25T04:36:39.385Z,33.87
2019-01-25T04:39:10.291Z,27.40
2019-01-25T04:41:40.083Z,32.70
2019-01-25T04:44:09.953Z,31.17
2019-01-25T04:46:39.739Z,27.10
2019-01-25T04:49:09.577Z,29.37
2019-01-25T04:51:39.661Z,30.67
2019-01-25T04:54:09.426Z,30.47
2019-01-25T04:56:39.594Z,27.53
2019-01-25T04:59:09.382Z,30.70
2019-01-25T05:01:39.207Z,32.93
2019-01-25T05:04:09.002Z,29.23
2019-01-25T05:06:38.823Z,28.13
2019-01-25T05:09:09.568Z,31.67
2019-01-25T05:11:39.393Z,33.63
2019-01-25T05:14:09.179Z,32.57
2019-01-25T05:16:39.001Z,28.93
2019-01-25T05:19:08.778Z,28.47
2019-01-25T05:21:38.603Z,29.83
2019-01-25T05:24:12.702Z,31.03
2019-01-25T05:26:42.612Z,34.53
2019-01-25T05:29:12.971Z,32.23
2019-01-25T05:31:42.802Z,28.57
2019-01-25T05:34:12.656Z,25.20
2019-01-25T05:36:42.461Z,30.37
2019-01-25T05:39:12.348Z,26.60
2019-01-25T05:41:42.920Z,30.73
2019-01-25T05:44:13.794Z,28.70
2019-01-25T05:46:43.577Z,28.03
2019-01-25T05:49:13.437Z,27.83
2019-01-25T05:51:43.235Z,31.07
2019-01-25T05:54:13.042Z,27.27
2019-01-25T05:56:45.864Z,28.30
2019-01-25T05:59:15.697Z,29.37
2019-01-25T06:01:46.738Z,29.23
2019-01-25T06:04:16.835Z,26.73
2019-01-25T06:06:46.658Z,28.00
2019-01-25T06:09:21.079Z,27.27
2019-01-25T06:11:50.846Z,29.27
2019-01-25T06:14:20.639Z,30.23
2019-01-25T06:16:50.620Z,26.73
2019-01-25T06:19:20.475Z,25.53
2019-01-25T06:21:51.115Z,28.03
2019-01-25T06:24:20.905Z,26.93
2019-01-25T06:26:50.783Z,31.07
2019-01-25T06:29:20.568Z,31.70
2019-01-25T06:31:50.431Z,32.10
2019-01-25T06:34:20.309Z,34.47
2019-01-25T06:36:50.167Z,32.97
2019-01-25T06:39:19.963Z,34.00
2019-01-25T06:41:49.785Z,37.60
2019-01-25T06:44:19.614Z,35.27
2019-01-25T06:46:49.400Z,36.63
2019-01-25T06:49:19.283Z,32.20
2019-01-25T06:51:49.079Z,34.23
2019-01-25T06:54:18.906Z,34.73
2019-01-25T06:56:48.709Z,35.20
2019-01-25T06:59:22.063Z,32.83
2019-01-25T07:01:55.617Z,33.20
2019-01-25T07:04:25.455Z,35.70
2019-01-25T07:06:55.220Z,38.50
2019-01-25T07:09:25.044Z,33.10
2019-01-25T07:11:55.147Z,34.87
2019-01-25T07:14:24.978Z,29.37
2019-01-25T07:16:54.806Z,30.40
2019-01-25T07:19:24.605Z,32.27
2019-01-25T07:21:54.413Z,33.47
2019-01-25T07:24:24.186Z,31.27
2019-01-25T07:26:54.047Z,31.17
2019-01-25T07:29:23.862Z,36.33
2019-01-25T07:31:53.745Z,37.90
2019-01-25T07:34:23.496Z,34.83
2019-01-25T07:36:53.429Z,35.93
2019-01-25T07:39:28.651Z,35.67
2019-01-25T07:42:00.262Z,37.70
2019-01-25T07:44:29.960Z,36.70
2019-01-25T07:46:59.822Z,37.73
2019-01-25T07:49:29.585Z,38.13
2019-01-25T07:51:59.353Z,36.70
2019-01-25T07:54:29.361Z,37.63
2019-01-25T07:56:59.410Z,38.93
2019-01-25T07:59:29.265Z,36.17
2019-01-25T08:01:59.054Z,35.40
2019-01-25T08:04:28.897Z,34.73
2019-01-25T08:06:58.637Z,39.80
2019-01-25T08:09:28.473Z,41.10
2019-01-25T08:11:58.208Z,37.87
2019-01-25T08:14:28.020Z,36.43
2019-01-25T08:16:57.772Z,35.27
2019-01-25T08:19:27.594Z,37.20
2019-01-25T08:21:57.532Z,30.33
2019-01-25T08:24:27.331Z,34.53
2019-01-25T08:26:57.157Z,36.57
2019-01-25T08:29:28.088Z,33.77
2019-01-25T08:31:58.325Z,37.87
2019-01-25T08:34:28.081Z,33.17
2019-01-25T08:36:57.903Z,39.53
2019-01-25T08:39:27.765Z,35.70
2019-01-25T08:41:57.635Z,34.33
2019-01-25T08:44:27.397Z,36.00
2019-01-25T08:46:57.341Z,36.33
2019-01-25T08:49:27.217Z,35.07
2019-01-25T08:51:57.211Z,35.33
2019-01-25T08:54:27.015Z,37.00
2019-01-25T08:56:56.768Z,36.70
2019-01-25T08:59:26.605Z,34.70
2019-01-25T09:01:56.479Z,32.67
2019-01-25T09:04:26.339Z,34.90
2019-01-25T09:06:56.094Z,32.37
2019-01-25T09:09:25.911Z,33.13
2019-01-25T09:11:55.696Z,33.17
2019-01-25T09:14:25.548Z,32.27
2019-01-25T09:16:55.372Z,31.00
2019-01-25T09:19:25.243Z,29.67
2019-01-25T09:21:55.028Z,29.43
2019-01-25T09:24:24.815Z,28.30
2019-01-25T09:26:54.584Z,33.67
2019-01-25T09:29:24.481Z,28.47
2019-01-25T09:31:54.205Z,29.50
2019-01-25T09:34:24.049Z,26.53
2019-01-25T09:36:53.788Z,32.40
2019-01-25T09:39:23.623Z,29.50
2019-01-25T09:41:53.433Z,26.40
2019-01-25T09:44:23.238Z,28.63
2019-01-25T09:46:53.530Z,28.10
2019-01-25T09:49:23.447Z,29.57
2019-01-25T09:51:53.300Z,30.37
2019-01-25T09:54:23.101Z,26.97
2019-01-25T09:56:52.997Z,28.70
2019-01-25T09:59:22.804Z,29.43
2019-01-25T10:01:52.685Z,29.87
2019-01-25T10:04:22.474Z,26.40
2019-01-25T10:06:52.294Z,29.10
2019-01-25T10:09:24.267Z,24.87
2019-01-25T10:11:54.066Z,25.67
2019-01-25T10:14:23.875Z,29.50
2019-01-25T10:16:53.737Z,28.63
2019-01-25T10:19:23.455Z,24.90
2019-01-25T10:21:54.321Z,25.13
2019-01-25T10:24:24.350Z,25.47
2019-01-25T10:26:54.127Z,26.90
2019-01-25T10:29:23.992Z,24.23
2019-01-25T10:31:53.768Z,27.97
2019-01-25T10:34:23.625Z,28.57
2019-01-25T10:36:53.414Z,24.67
2019-01-25T10:39:23.251Z,27.07
2019-01-25T10:41:53.060Z,27.77
2019-01-25T10:44:22.826Z,25.50
2019-01-25T10:46:52.664Z,22.43
2019-01-25T10:49:22.445Z,21.43
2019-01-25T10:51:52.326Z,23.70
2019-01-25T10:54:22.135Z,22.17
2019-01-25T10:56:51.979Z,23.27
2019-01-25T10:59:21.819Z,25.77
2019-01-25T11:01:51.621Z,22.00
2019-01-25T11:04:21.408Z,24.13
2019-01-25T11:06:51.208Z,24.67
2019-01-25T11:09:20.958Z,20.23
2019-01-25T11:11:50.760Z,22.63
2019-01-25T11:14:20.622Z,22.57
2019-01-25T11:16:50.439Z,20.10
2019-01-25T11:19:20.274Z,22.50
2019-01-25T11:21:50.052Z,18.93
2019-01-25T11:24:19.888Z,20.53
2019-01-25T11:26:49.713Z,18.37
2019-01-25T11:29:19.652Z,22.07
2019-01-25T11:31:49.388Z,19.03
2019-01-25T11:34:19.243Z,20.03
2019-01-25T11:36:48.969Z,19.70
2019-01-25T11:39:18.744Z,17.17
2019-01-25T11:41:48.553Z,16.20
2019-01-25T11:44:18.373Z,17.53
2019-01-25T11:46:48.090Z,19.27
2019-01-25T11:49:18.520Z,21.03
2019-01-25T11:51:48.269Z,18.80
2019-01-25T11:54:18.166Z,18.77
2019-01-25T11:56:47.903Z,20.50
2019-01-25T11:59:17.686Z,20.47
2019-01-25T12:01:47.447Z,19.83
2019-01-25T12:04:17.272Z,21.10
2019-01-25T12:06:46.991Z,21.53
2019-01-25T12:09:16.842Z,18.30
2019-01-25T12:11:46.647Z,19.13
2019-01-25T12:14:16.479Z,21.60
2019-01-25T12:16:46.325Z,19.37
2019-01-25T12:19:16.120Z,19.50
2019-01-25T12:21:46.109Z,21.23
2019-01-25T12:24:15.920Z,18.27
2019-01-25T12:26:45.759Z,20.23
2019-01-25T12:29:15.613Z,16.27
2019-01-25T12:31:45.488Z,17.27
2019-01-25T12:34:15.281Z,17.43
2019-01-25T12:36:45.121Z,19.17
2019-01-25T12:39:14.907Z,19.37
2019-01-25T12:41:44.776Z,18.93
2019-01-25T12:44:14.646Z,20.27
2019-01-25T12:46:44.425Z,23.43
2019-01-25T12:49:14.306Z,24.63
2019-01-25T12:51:49.582Z,22.03
2019-01-25T12:54:19.795Z,21.20
2019-01-25T12:56:49.613Z,21.30
2019-01-25T12:59:19.475Z,21.90
2019-01-25T13:01:50.856Z,17.50
2019-01-25T13:04:20.733Z,19.83
2019-01-25T13:06:50.506Z,18.47
2019-01-25T13:09:20.461Z,18.80
2019-01-25T13:11:50.241Z,21.20
2019-01-25T13:14:20.016Z,18.33
2019-01-25T13:16:50.756Z,18.63
2019-01-25T13:19:20.782Z,21.00
2019-01-25T13:21:50.599Z,21.53
2019-01-25T13:24:20.395Z,19.50
2019-01-25T13:26:50.238Z,18.07
2019-01-25T13:29:26.033Z,17.13
2019-01-25T13:31:51.590Z,20.70
2019-01-25T13:34:21.505Z,16.10
2019-01-25T13:36:56.996Z,18.87
2019-01-25T13:39:22.877Z,14.17
2019-01-25T13:41:52.702Z,19.03
2019-01-25T13:44:22.720Z,14.43
2019-01-25T13:46:53.031Z,17.00
2019-01-25T13:49:22.904Z,14.43
2019-01-25T13:51:52.697Z,17.67
2019-01-25T13:54:22.529Z,14.97
2019-01-25T13:56:52.313Z,18.93
2019-01-25T13:59:22.120Z,15.87
2019-01-25T14:01:56.129Z,17.87
2019-01-25T14:04:23.329Z,16.37
2019-01-25T14:06:53.081Z,17.57
2019-01-25T14:09:22.992Z,17.20
2019-01-25T14:11:52.787Z,19.67
2019-01-25T14:14:22.572Z,19.67
2019-01-25T14:16:52.322Z,19.20
2019-01-25T14:19:22.130Z,16.27
2019-01-25T14:21:51.906Z,20.40
2019-01-25T14:24:21.701Z,18.10
2019-01-25T14:26:51.516Z,18.67
2019-01-25T14:29:21.548Z,18.97
2019-01-25T14:31:51.309Z,18.27
2019-01-25T14:34:21.053Z,18.13
2019-01-25T14:36:50.865Z,19.93
2019-01-25T14:39:20.811Z,21.07
2019-01-25T14:41:50.616Z,18.43
2019-01-25T14:44:20.417Z,19.03
2019-01-25T14:46:50.207Z,21.00
2019-01-25T14:49:19.986Z,20.93
2019-01-25T14:51:49.836Z,19.23
2019-01-25T14:54:19.570Z,20.40
2019-01-25T14:56:49.414Z,19.93
2019-01-25T14:59:19.248Z,17.43
2019-01-25T15:01:49.007Z,22.00
2019-01-25T15:04:18.840Z,20.27
2019-01-25T15:06:48.604Z,22.23
2019-01-25T15:09:18.333Z,21.97
2019-01-25T15:11:48.148Z,22.50
2019-01-25T15:14:17.991Z,21.67
2019-01-25T15:16:47.783Z,23.83
2019-01-25T15:19:17.603Z,23.93
2019-01-25T15:21:47.384Z,24.57
2019-01-25T15:24:17.134Z,20.53
2019-01-25T15:26:46.918Z,21.20
2019-01-25T15:29:16.736Z,21.27
2019-01-25T15:31:46.571Z,23.57
2019-01-25T15:34:16.402Z,21.27
2019-01-25T15:36:46.172Z,21.40
2019-01-25T15:39:16.160Z,24.33
2019-01-25T15:41:45.995Z,21.00
2019-01-25T15:44:15.783Z,23.27
2019-01-25T15:46:45.632Z,23.77
2019-01-25T15:49:15.418Z,22.83
2019-01-25T15:51:45.258Z,20.93
2019-01-25T15:54:15.041Z,23.37
2019-01-25T15:56:44.874Z,21.67
2019-01-25T15:59:14.674Z,21.07
2019-01-25T16:01:44.501Z,22.27
2019-01-25T16:04:14.305Z,22.93
2019-01-25T16:06:44.131Z,21.03
2019-01-25T16:09:23.394Z,21.13
2019-01-25T16:11:47.054Z,23.00
2019-01-25T16:14:18.043Z,22.83
2019-01-25T16:16:48.081Z,21.20
2019-01-25T16:19:17.943Z,21.80
2019-01-25T16:21:48.691Z,24.27
2019-01-25T16:24:18.542Z,23.77
2019-01-25T16:26:48.328Z,22.10
2019-01-25T16:29:18.214Z,25.53
2019-01-25T16:31:48.117Z,21.50
2019-01-25T16:34:18.131Z,21.77
2019-01-25T16:36:47.924Z,22.07
2019-01-25T16:39:17.760Z,22.67
2019-01-25T16:41:47.689Z,21.23
2019-01-25T16:44:17.525Z,23.60
2019-01-25T16:46:48.282Z,21.70
2019-01-25T16:49:18.144Z,24.13
2019-01-25T16:51:47.912Z,20.27
2019-01-25T16:54:17.685Z,23.70
2019-01-25T16:56:47.537Z,20.83
2019-01-25T16:59:17.326Z,20.47
2019-01-25T17:01:47.169Z,20.50
2019-01-25T17:04:16.956Z,22.00
2019-01-25T17:06:46.895Z,24.80
2019-01-25T17:09:18.128Z,21.67
2019-01-25T17:11:47.991Z,21.93
2019-01-25T17:14:17.800Z,20.90
2019-01-25T17:16:47.631Z,23.03
2019-01-25T17:19:17.444Z,25.00
2019-01-25T17:21:47.306Z,20.50
2019-01-25T17:24:17.130Z,20.17
2019-01-25T17:26:46.920Z,19.87
2019-01-25T17:29:16.765Z,24.70
2019-01-25T17:31:46.645Z,21.10
2019-01-25T17:34:16.483Z,28.00
2019-01-25T17:36:46.285Z,22.20
2019-01-25T17:39:18.024Z,22.07
2019-01-25T17:41:47.824Z,23.87
2019-01-25T17:44:17.684Z,20.37
2019-01-25T17:46:47.430Z,20.27
2019-01-25T17:49:17.273Z,22.70
2019-01-25T17:51:47.220Z,21.30
2019-01-25T17:54:17.010Z,23.63
2019-01-25T17:56:46.819Z,21.23
2019-01-25T17:59:16.624Z,23.40
2019-01-25T18:01:46.461Z,22.20
2019-01-25T18:04:16.270Z,22.90
2019-01-25T18:06:46.091Z,22.10
2019-01-25T18:09:16.408Z,21.80
2019-01-25T18:11:46.259Z,20.50
2019-01-25T18:14:16.074Z,21.03
2019-01-25T18:16:45.907Z,18.50
2019-01-25T18:19:15.779Z,20.23
2019-01-25T18:21:45.617Z,16.77
2019-01-25T18:24:15.477Z,17.57
2019-01-25T18:26:45.246Z,22.77
2019-01-25T18:29:32.213Z,20.83
2019-01-25T18:32:02.066Z,19.23
2019-01-25T18:34:31.930Z,22.73
2019-01-25T18:37:01.720Z,20.77
2019-01-25T18:39:31.576Z,18.60
2019-01-25T18:42:01.387Z,20.60
2019-01-25T18:44:31.256Z,20.27
2019-01-25T18:47:01.055Z,25.93
2019-01-25T18:49:31.584Z,23.80
2019-01-25T18:52:01.394Z,21.97
2019-01-25T18:54:31.261Z,18.43
2019-01-25T18:57:01.289Z,20.57
2019-01-25T18:59:31.098Z,19.73
2019-01-25T19:02:00.904Z,19.03
2019-01-25T19:04:30.741Z,21.83
2019-01-25T19:07:00.498Z,18.03
2019-01-25T19:09:30.290Z,18.93
2019-01-25T19:12:00.161Z,19.07
2019-01-25T19:14:29.940Z,23.07
2019-01-25T19:16:59.732Z,18.97
2019-01-25T19:19:29.593Z,18.97
2019-01-25T19:21:59.426Z,17.93
2019-01-25T19:24:29.184Z,16.73
2019-01-25T19:26:59.041Z,19.90
2019-01-25T19:29:28.818Z,18.40
2019-01-25T19:31:58.697Z,18.97
2019-01-25T19:34:28.502Z,18.07
2019-01-25T19:36:58.316Z,16.00
2019-01-25T19:39:28.168Z,15.87
2019-01-25T19:41:57.985Z,17.40
2019-01-25T19:44:27.907Z,16.30
2019-01-25T19:46:57.708Z,17.93
2019-01-25T19:49:27.547Z,21.07
2019-01-25T19:51:57.937Z,19.60
2019-01-25T19:54:28.070Z,18.13
2019-01-25T19:56:58.457Z,17.50
2019-01-25T19:59:28.318Z,19.97
2019-01-25T20:01:58.139Z,17.20
2019-01-25T20:04:28.015Z,19.43
2019-01-25T20:06:57.814Z,16.90
2019-01-25T20:09:31.495Z,14.30
2019-01-25T20:12:01.378Z,19.37
2019-01-25T20:14:31.748Z,18.20
2019-01-25T20:17:01.691Z,17.77
2019-01-25T20:19:31.553Z,17.27
2019-01-25T20:22:01.591Z,16.37
2019-01-25T20:24:31.611Z,17.30
2019-01-25T20:27:01.447Z,17.47
2019-01-25T20:29:31.403Z,15.07
2019-01-25T20:32:01.273Z,18.67
2019-01-25T20:34:31.499Z,12.50
2019-01-25T20:37:01.412Z,15.93
2019-01-25T20:39:31.316Z,15.57
2019-01-25T20:42:01.622Z,15.27
2019-01-25T20:44:31.597Z,16.67
2019-01-25T20:47:01.522Z,15.67
2019-01-25T20:49:31.435Z,17.17
2019-01-25T20:52:01.348Z,14.73
2019-01-25T20:54:31.348Z,15.83
2019-01-25T20:57:01.218Z,13.57
2019-01-25T20:59:31.059Z,14.43
2019-01-25T21:02:01.143Z,13.97
2019-01-25T21:04:30.957Z,15.80
2019-01-25T21:07:00.885Z,13.63
2019-01-25T21:09:30.680Z,13.80
2019-01-25T21:12:00.826Z,14.97
2019-01-25T21:14:30.782Z,16.47
2019-01-25T21:17:00.599Z,14.23
2019-01-25T21:19:30.388Z,13.33
2019-01-25T21:22:00.202Z,17.30
2019-01-25T21:24:30.090Z,13.70
2019-01-25T21:27:00.130Z,15.63
2019-01-25T21:29:30.319Z,15.63
2019-01-25T21:32:01.203Z,13.67
2019-01-25T21:34:31.424Z,12.37
2019-01-25T21:37:02.717Z,13.87
2019-01-25T21:39:33.050Z,14.13
2019-01-25T21:42:03.356Z,14.53
2019-01-25T21:44:33.792Z,14.20
2019-01-25T21:47:04.100Z,14.50
2019-01-25T21:49:35.473Z,13.50
2019-01-25T21:52:05.971Z,17.73
2019-01-25T21:54:36.149Z,14.70
2019-01-25T21:57:06.412Z,13.10
2019-01-25T21:59:36.754Z,12.73
2019-01-25T22:02:06.880Z,15.23
2019-01-25T22:04:37.063Z,12.70
2019-01-25T22:07:07.234Z,11.63
2019-01-25T22:09:37.447Z,12.60
2019-01-25T22:12:07.568Z,15.20
2019-01-25T22:14:38.080Z,11.43
2019-01-25T22:17:08.146Z,12.40
2019-01-25T22:19:38.363Z,12.33
2019-01-25T22:22:08.813Z,10.50
2019-01-25T22:24:38.745Z,10.40
2019-01-25T22:27:09.444Z,11.97
2019-01-25T22:29:39.795Z,10.77
2019-01-25T22:32:09.897Z,12.30
2019-01-25T22:34:40.169Z,10.87
2019-01-25T22:37:10.287Z,11.13
2019-01-25T22:39:40.655Z,11.33
2019-01-25T22:42:11.801Z,11.67
2019-01-25T22:44:42.176Z,10.50
2019-01-25T22:47:12.444Z,11.43
2019-01-25T22:49:44.292Z,10.77
2019-01-25T22:52:14.927Z,10.10
2019-01-25T22:54:45.403Z,12.20
2019-01-25T22:57:15.277Z,11.20
2019-01-25T22:59:45.598Z,9.43
2019-01-25T23:02:15.371Z,10.43
2019-01-25T23:05:41.040Z,11.27
2019-01-25T23:08:10.820Z,8.67
2019-01-25T23:10:40.682Z,9.10
2019-01-25T23:13:10.477Z,7.17
2019-01-25T23:15:40.328Z,7.93
2019-01-25T23:18:10.133Z,8.93
2019-01-25T23:20:39.974Z,7.80
2019-01-25T23:23:09.784Z,8.27
2019-01-25T23:25:39.638Z,9.53
2019-01-25T23:28:09.418Z,7.87
2019-01-25T23:30:39.194Z,7.50
2019-01-25T23:33:09.062Z,8.87
2019-01-25T23:35:38.866Z,8.13
2019-01-25T23:38:08.736Z,8.53
2019-01-25T23:40:38.642Z,14.37
2019-01-25T23:43:08.458Z,7.37
2019-01-25T23:45:38.223Z,7.87
2019-01-25T23:48:08.046Z,7.10
2019-01-25T23:50:37.834Z,5.77
2019-01-25T23:53:07.674Z,8.03
2019-01-25T23:55:37.466Z,7.63
2019-01-25T23:58:07.332Z,8.30
